Mather, California
Current Conditions -  °F | °C
As of 8:47 PM on Wednesday 22 Oct 2014 (Local Time) from KMHR Reporting Station
Scattered Clouds Scattered Clouds  
Wind Chill: 63°   Ceiling: Unl
Heat Index: 63°   Visibility: 10mi
Dew Point: 45°   Wind: 6mph
Humidity: 52%   Direction: 140°SE
Pressure: 30.02"   Gusts: NA
Location:  38.55°N, 121.28°W
Report Text: KMHR 230347Z 14005KT 10SM SCT200 17/07 A3002
Loading
Personal Weather Stations






























Interactive Weather Map
Tropical Storm Tracking
New forecast layout! Learn more

10-Day Weather Forecast

Advertisements
Track Severe Weather on mobile